sensor_id;sensor_type;location;lat;lon;timestamp;pressure;altitude;pressure_sealevel;temperature;humidity
35694;BME280;21812;55.536;37.664;2023-02-28T00:00:32;100314.41;;;-5.98;67.97
35694;BME280;21812;55.536;37.664;2023-02-28T00:02:58;100323.41;;;-6.05;67.96
35694;BME280;21812;55.536;37.664;2023-02-28T00:05:25;100294.59;;;-6.20;68.51
35694;BME280;21812;55.536;37.664;2023-02-28T00:07:51;100300.28;;;-6.31;68.76
35694;BME280;21812;55.536;37.664;2023-02-28T00:10:27;100288.81;;;-6.26;68.75
35694;BME280;21812;55.536;37.664;2023-02-28T00:12:54;100307.25;;;-6.12;68.30
35694;BME280;21812;55.536;37.664;2023-02-28T00:15:22;100294.31;;;-6.14;67.86
35694;BME280;21812;55.536;37.664;2023-02-28T00:17:48;100285.31;;;-6.25;68.02
35694;BME280;21812;55.536;37.664;2023-02-28T00:20:14;100278.41;;;-6.26;67.79
35694;BME280;21812;55.536;37.664;2023-02-28T00:22:43;100275.63;;;-6.41;68.26
35694;BME280;21812;55.536;37.664;2023-02-28T00:25:12;100278.88;;;-6.36;68.42
35694;BME280;21812;55.536;37.664;2023-02-28T00:27:39;100229.81;;;-6.62;68.71
35694;BME280;21812;55.536;37.664;2023-02-28T00:30:06;100245.53;;;-6.65;68.75
35694;BME280;21812;55.536;37.664;2023-02-28T00:32:32;100275.03;;;-6.47;68.35
35694;BME280;21812;55.536;37.664;2023-02-28T00:35:00;100277.72;;;-6.49;68.94
35694;BME280;21812;55.536;37.664;2023-02-28T00:37:26;100276.25;;;-6.55;68.68
35694;BME280;21812;55.536;37.664;2023-02-28T00:39:52;100268.44;;;-6.55;68.42
35694;BME280;21812;55.536;37.664;2023-02-28T00:42:17;100261.31;;;-6.51;68.93
35694;BME280;21812;55.536;37.664;2023-02-28T00:44:43;100257.50;;;-6.42;68.36
35694;BME280;21812;55.536;37.664;2023-02-28T00:47:10;100261.69;;;-6.40;68.03
35694;BME280;21812;55.536;37.664;2023-02-28T00:49:36;100265.78;;;-6.34;67.80
35694;BME280;21812;55.536;37.664;2023-02-28T00:52:02;100257.13;;;-6.35;67.89
35694;BME280;21812;55.536;37.664;2023-02-28T00:54:28;100261.47;;;-6.54;68.11
35694;BME280;21812;55.536;37.664;2023-02-28T00:56:53;100260.44;;;-6.50;68.66
35694;BME280;21812;55.536;37.664;2023-02-28T00:59:19;100247.31;;;-6.47;68.52
35694;BME280;21812;55.536;37.664;2023-02-28T01:01:45;100257.41;;;-6.41;67.98
35694;BME280;21812;55.536;37.664;2023-02-28T01:04:12;100243.66;;;-6.43;67.89
35694;BME280;21812;55.536;37.664;2023-02-28T01:06:38;100245.97;;;-6.37;67.83
35694;BME280;21812;55.536;37.664;2023-02-28T01:09:05;100246.63;;;-6.32;67.50
35694;BME280;21812;55.536;37.664;2023-02-28T01:11:31;100233.44;;;-6.47;67.62
35694;BME280;21812;55.536;37.664;2023-02-28T01:13:58;100234.22;;;-6.45;68.42
35694;BME280;21812;55.536;37.664;2023-02-28T01:16:24;100226.06;;;-6.38;67.56
35694;BME280;21812;55.536;37.664;2023-02-28T01:18:50;100240.66;;;-6.34;67.06
35694;BME280;21812;55.536;37.664;2023-02-28T01:21:17;100228.06;;;-6.43;67.40
35694;BME280;21812;55.536;37.664;2023-02-28T01:23:44;100227.41;;;-6.48;67.44
35694;BME280;21812;55.536;37.664;2023-02-28T01:26:13;100210.41;;;-6.55;67.72
35694;BME280;21812;55.536;37.664;2023-02-28T01:28:39;100209.81;;;-6.60;67.92
35694;BME280;21812;55.536;37.664;2023-02-28T01:31:06;100218.31;;;-6.57;67.58
35694;BME280;21812;55.536;37.664;2023-02-28T01:33:33;100217.78;;;-6.46;67.94
35694;BME280;21812;55.536;37.664;2023-02-28T01:36:00;100211.94;;;-6.51;68.17
35694;BME280;21812;55.536;37.664;2023-02-28T01:38:26;100201.16;;;-6.42;67.90
35694;BME280;21812;55.536;37.664;2023-02-28T01:40:53;100204.50;;;-6.40;67.86
35694;BME280;21812;55.536;37.664;2023-02-28T01:43:52;100165.34;;;-6.54;67.89
35694;BME280;21812;55.536;37.664;2023-02-28T01:46:18;100199.91;;;-6.33;67.48
35694;BME280;21812;55.536;37.664;2023-02-28T01:49:10;100187.53;;;-6.47;67.48
35694;BME280;21812;55.536;37.664;2023-02-28T01:51:50;100178.81;;;-6.46;67.47
35694;BME280;21812;55.536;37.664;2023-02-28T01:54:23;100147.00;;;-6.51;67.73
35694;BME280;21812;55.536;37.664;2023-02-28T01:56:56;100179.81;;;-6.30;67.41
35694;BME280;21812;55.536;37.664;2023-02-28T01:59:31;100187.03;;;-6.36;66.77
35694;BME280;21812;55.536;37.664;2023-02-28T02:01:58;100181.00;;;-6.37;66.82
35694;BME280;21812;55.536;37.664;2023-02-28T02:04:30;100173.69;;;-6.47;67.57
35694;BME280;21812;55.536;37.664;2023-02-28T02:06:58;100121.19;;;-6.92;67.57
35694;BME280;21812;55.536;37.664;2023-02-28T02:09:23;100148.91;;;-6.74;67.48
35694;BME280;21812;55.536;37.664;2023-02-28T02:11:51;100164.94;;;-6.64;67.66
35694;BME280;21812;55.536;37.664;2023-02-28T02:14:36;100150.81;;;-6.58;67.84
35694;BME280;21812;55.536;37.664;2023-02-28T02:17:18;100169.53;;;-6.71;67.68
35694;BME280;21812;55.536;37.664;2023-02-28T02:28:40;100138.66;;;-6.77;68.72
35694;BME280;21812;55.536;37.664;2023-02-28T02:34:17;100114.44;;;-6.77;68.26
35694;BME280;21812;55.536;37.664;2023-02-28T02:37:09;100122.78;;;-6.71;68.85
35694;BME280;21812;55.536;37.664;2023-02-28T02:39:50;100124.47;;;-6.70;68.56
35694;BME280;21812;55.536;37.664;2023-02-28T02:42:37;100069.44;;;-6.97;68.19
35694;BME280;21812;55.536;37.664;2023-02-28T02:45:25;100119.69;;;-6.60;68.50
35694;BME280;21812;55.536;37.664;2023-02-28T02:47:53;100119.78;;;-6.61;68.50
35694;BME280;21812;55.536;37.664;2023-02-28T02:50:30;100102.84;;;-6.70;68.63
35694;BME280;21812;55.536;37.664;2023-02-28T02:53:00;100116.88;;;-6.74;68.85
35694;BME280;21812;55.536;37.664;2023-02-28T02:55:30;100097.75;;;-6.72;68.77
35694;BME280;21812;55.536;37.664;2023-02-28T02:58:01;100092.63;;;-6.73;68.63
35694;BME280;21812;55.536;37.664;2023-02-28T03:00:32;100092.25;;;-6.65;68.88
35694;BME280;21812;55.536;37.664;2023-02-28T03:03:00;100046.00;;;-6.76;68.49
35694;BME280;21812;55.536;37.664;2023-02-28T03:05:35;100078.66;;;-6.53;68.66
35694;BME280;21812;55.536;37.664;2023-02-28T03:08:05;100078.31;;;-6.45;68.38
35694;BME280;21812;55.536;37.664;2023-02-28T03:10:41;100077.09;;;-6.38;68.53
35694;BME280;21812;55.536;37.664;2023-02-28T03:13:24;100073.91;;;-6.43;67.79
35694;BME280;21812;55.536;37.664;2023-02-28T03:24:04;100070.84;;;-6.71;68.63
35694;BME280;21812;55.536;37.664;2023-02-28T03:26:34;100025.75;;;-6.87;68.27
35694;BME280;21812;55.536;37.664;2023-02-28T03:34:46;100039.97;;;-6.77;68.24
35694;BME280;21812;55.536;37.664;2023-02-28T03:37:16;99987.66;;;-7.05;68.60
35694;BME280;21812;55.536;37.664;2023-02-28T03:39:46;99980.41;;;-6.99;68.18
35694;BME280;21812;55.536;37.664;2023-02-28T03:42:25;100003.19;;;-6.86;68.59
35694;BME280;21812;55.536;37.664;2023-02-28T03:45:00;99969.34;;;-7.02;68.43
35694;BME280;21812;55.536;37.664;2023-02-28T03:52:38;99982.63;;;-6.91;68.03
35694;BME280;21812;55.536;37.664;2023-02-28T03:55:11;99994.06;;;-6.95;68.79
35694;BME280;21812;55.536;37.664;2023-02-28T04:02:40;99986.16;;;-6.92;68.81
35694;BME280;21812;55.536;37.664;2023-02-28T04:05:06;99985.22;;;-6.91;68.41
35694;BME280;21812;55.536;37.664;2023-02-28T04:07:32;99997.06;;;-6.85;68.18
35694;BME280;21812;55.536;37.664;2023-02-28T04:09:58;99973.03;;;-6.89;68.48
35694;BME280;21812;55.536;37.664;2023-02-28T04:12:24;99982.44;;;-6.86;68.44
35694;BME280;21812;55.536;37.664;2023-02-28T04:14:50;99965.38;;;-6.92;68.02
35694;BME280;21812;55.536;37.664;2023-02-28T04:17:17;99966.00;;;-6.87;68.00
35694;BME280;21812;55.536;37.664;2023-02-28T04:19:42;99961.78;;;-6.90;67.76
35694;BME280;21812;55.536;37.664;2023-02-28T04:22:09;99971.78;;;-6.99;68.24
35694;BME280;21812;55.536;37.664;2023-02-28T04:24:35;99959.56;;;-6.97;68.51
35694;BME280;21812;55.536;37.664;2023-02-28T04:27:01;99941.06;;;-7.09;68.24
35694;BME280;21812;55.536;37.664;2023-02-28T04:29:31;99911.75;;;-7.30;68.23
35694;BME280;21812;55.536;37.664;2023-02-28T04:31:59;99912.00;;;-7.34;68.17
35694;BME280;21812;55.536;37.664;2023-02-28T04:34:26;99914.59;;;-7.34;68.49
35694;BME280;21812;55.536;37.664;2023-02-28T04:36:53;99953.44;;;-7.14;68.24
35694;BME280;21812;55.536;37.664;2023-02-28T04:39:22;99948.22;;;-7.14;68.66
35694;BME280;21812;55.536;37.664;2023-02-28T04:41:49;99945.34;;;-7.08;68.77
35694;BME280;21812;55.536;37.664;2023-02-28T04:44:15;99938.19;;;-7.02;67.98
35694;BME280;21812;55.536;37.664;2023-02-28T04:46:41;99944.22;;;-7.02;68.12
35694;BME280;21812;55.536;37.664;2023-02-28T04:49:10;99904.31;;;-7.18;68.16
35694;BME280;21812;55.536;37.664;2023-02-28T04:51:37;99923.66;;;-7.07;67.76
35694;BME280;21812;55.536;37.664;2023-02-28T04:54:03;99947.00;;;-7.07;67.66
35694;BME280;21812;55.536;37.664;2023-02-28T04:56:28;99915.03;;;-7.07;67.92
35694;BME280;21812;55.536;37.664;2023-02-28T04:58:54;99904.28;;;-6.99;67.78
35694;BME280;21812;55.536;37.664;2023-02-28T05:01:26;99914.34;;;-6.93;67.70
35694;BME280;21812;55.536;37.664;2023-02-28T05:03:53;99892.88;;;-6.97;67.60
35694;BME280;21812;55.536;37.664;2023-02-28T05:06:21;99918.19;;;-7.00;67.45
35694;BME280;21812;55.536;37.664;2023-02-28T05:08:47;99897.41;;;-7.00;67.29
35694;BME280;21812;55.536;37.664;2023-02-28T05:11:22;99898.31;;;-6.84;67.02
35694;BME280;21812;55.536;37.664;2023-02-28T05:13:49;99883.06;;;-6.90;66.90
35694;BME280;21812;55.536;37.664;2023-02-28T05:16:15;99866.47;;;-6.88;66.69
35694;BME280;21812;55.536;37.664;2023-02-28T05:18:41;99870.81;;;-7.05;66.83
35694;BME280;21812;55.536;37.664;2023-02-28T05:23:49;99871.47;;;-6.83;66.83
35694;BME280;21812;55.536;37.664;2023-02-28T05:26:15;99881.84;;;-6.65;66.33
35694;BME280;21812;55.536;37.664;2023-02-28T05:28:40;99865.50;;;-6.68;65.92
35694;BME280;21812;55.536;37.664;2023-02-28T05:31:08;99808.53;;;-7.05;66.05
35694;BME280;21812;55.536;37.664;2023-02-28T05:33:36;99858.16;;;-6.77;65.63
35694;BME280;21812;55.536;37.664;2023-02-28T05:36:01;99847.78;;;-6.77;65.94
35694;BME280;21812;55.536;37.664;2023-02-28T05:38:27;99842.13;;;-6.68;65.74
35694;BME280;21812;55.536;37.664;2023-02-28T05:40:53;99836.47;;;-6.58;65.09
35694;BME280;21812;55.536;37.664;2023-02-28T05:43:18;99829.53;;;-6.42;64.78
35694;BME280;21812;55.536;37.664;2023-02-28T05:45:44;99817.47;;;-6.43;64.33
35694;BME280;21812;55.536;37.664;2023-02-28T05:48:10;99809.50;;;-6.40;63.94
35694;BME280;21812;55.536;37.664;2023-02-28T05:50:36;99817.41;;;-6.41;64.05
35694;BME280;21812;55.536;37.664;2023-02-28T05:53:02;99800.56;;;-6.34;63.86
35694;BME280;21812;55.536;37.664;2023-02-28T05:55:27;99790.84;;;-6.31;63.66
35694;BME280;21812;55.536;37.664;2023-02-28T05:57:53;99782.28;;;-6.33;63.43
35694;BME280;21812;55.536;37.664;2023-02-28T06:00:19;99779.53;;;-6.30;63.13
35694;BME280;21812;55.536;37.664;2023-02-28T06:02:44;99771.66;;;-6.12;63.17
35694;BME280;21812;55.536;37.664;2023-02-28T06:05:13;99751.28;;;-6.20;62.99
35694;BME280;21812;55.536;37.664;2023-02-28T06:07:39;99756.06;;;-6.12;62.79
35694;BME280;21812;55.536;37.664;2023-02-28T06:10:05;99778.38;;;-6.08;62.34
35694;BME280;21812;55.536;37.664;2023-02-28T06:12:31;99758.25;;;-6.04;62.12
35694;BME280;21812;55.536;37.664;2023-02-28T06:14:57;99742.94;;;-5.95;61.91
35694;BME280;21812;55.536;37.664;2023-02-28T06:17:22;99736.56;;;-5.89;62.00
35694;BME280;21812;55.536;37.664;2023-02-28T06:19:48;99734.88;;;-5.74;61.75
35694;BME280;21812;55.536;37.664;2023-02-28T06:22:13;99750.81;;;-5.64;60.89
35694;BME280;21812;55.536;37.664;2023-02-28T06:24:39;99724.88;;;-5.66;60.80
35694;BME280;21812;55.536;37.664;2023-02-28T06:27:05;99744.25;;;-5.56;60.17
35694;BME280;21812;55.536;37.664;2023-02-28T06:29:32;99726.72;;;-5.68;60.04
35694;BME280;21812;55.536;37.664;2023-02-28T06:31:58;99722.47;;;-5.69;60.06
35694;BME280;21812;55.536;37.664;2023-02-28T06:34:23;99705.38;;;-5.59;60.00
35694;BME280;21812;55.536;37.664;2023-02-28T06:36:53;99657.00;;;-5.77;59.79
35694;BME280;21812;55.536;37.664;2023-02-28T06:39:18;99696.31;;;-5.52;59.37
35694;BME280;21812;55.536;37.664;2023-02-28T06:41:44;99697.22;;;-5.53;59.35
35694;BME280;21812;55.536;37.664;2023-02-28T06:44:17;99669.34;;;-5.51;59.34
35694;BME280;21812;55.536;37.664;2023-02-28T06:46:44;99689.09;;;-5.32;58.52
35694;BME280;21812;55.536;37.664;2023-02-28T06:49:11;99680.81;;;-5.39;58.66
35694;BME280;21812;55.536;37.664;2023-02-28T06:51:39;99680.69;;;-5.21;57.95
35694;BME280;21812;55.536;37.664;2023-02-28T06:54:05;99663.56;;;-5.11;57.88
35694;BME280;21812;55.536;37.664;2023-02-28T06:56:34;99670.09;;;-5.04;57.68
35694;BME280;21812;55.536;37.664;2023-02-28T06:59:00;99656.31;;;-4.92;57.05
35694;BME280;21812;55.536;37.664;2023-02-28T07:01:26;99656.41;;;-4.93;57.21
35694;BME280;21812;55.536;37.664;2023-02-28T07:03:53;99640.41;;;-5.01;57.32
35694;BME280;21812;55.536;37.664;2023-02-28T07:06:21;99657.63;;;-4.84;57.69
35694;BME280;21812;55.536;37.664;2023-02-28T07:08:48;99645.44;;;-4.69;57.04
35694;BME280;21812;55.536;37.664;2023-02-28T07:11:14;99622.69;;;-4.53;56.94
35694;BME280;21812;55.536;37.664;2023-02-28T07:13:40;99622.41;;;-4.48;56.35
35694;BME280;21812;55.536;37.664;2023-02-28T07:16:08;99604.25;;;-4.50;56.75
35694;BME280;21812;55.536;37.664;2023-02-28T07:18:35;99615.63;;;-4.24;56.40
35694;BME280;21812;55.536;37.664;2023-02-28T07:21:07;99540.91;;;-4.38;55.78
35694;BME280;21812;55.536;37.664;2023-02-28T07:23:33;99591.06;;;-4.07;55.55
35694;BME280;21812;55.536;37.664;2023-02-28T07:25:59;99583.75;;;-4.02;55.83
35694;BME280;21812;55.536;37.664;2023-02-28T07:28:25;99617.38;;;-3.97;55.92
35694;BME280;21812;55.536;37.664;2023-02-28T07:30:51;99572.34;;;-3.86;56.29
35694;BME280;21812;55.536;37.664;2023-02-28T07:33:16;99568.03;;;-3.87;56.42
35694;BME280;21812;55.536;37.664;2023-02-28T07:35:42;99555.22;;;-3.78;56.47
35694;BME280;21812;55.536;37.664;2023-02-28T07:38:08;99564.22;;;-3.69;56.52
35694;BME280;21812;55.536;37.664;2023-02-28T07:40:34;99549.38;;;-3.43;56.28
35694;BME280;21812;55.536;37.664;2023-02-28T07:43:00;99548.66;;;-3.32;56.19
35694;BME280;21812;55.536;37.664;2023-02-28T07:45:27;99546.84;;;-3.19;56.03
35694;BME280;21812;55.536;37.664;2023-02-28T07:47:54;99539.31;;;-3.10;56.01
35694;BME280;21812;55.536;37.664;2023-02-28T07:50:21;99545.59;;;-3.00;56.49
35694;BME280;21812;55.536;37.664;2023-02-28T07:52:47;99531.16;;;-2.93;56.49
35694;BME280;21812;55.536;37.664;2023-02-28T07:55:12;99530.16;;;-2.79;56.34
35694;BME280;21812;55.536;37.664;2023-02-28T07:57:39;99562.78;;;-2.85;55.84
35694;BME280;21812;55.536;37.664;2023-02-28T08:00:07;99498.91;;;-2.81;56.34
35694;BME280;21812;55.536;37.664;2023-02-28T08:02:39;99519.06;;;-2.70;56.61
35694;BME280;21812;55.536;37.664;2023-02-28T08:05:06;99491.03;;;-2.68;56.74
35694;BME280;21812;55.536;37.664;2023-02-28T08:07:32;99496.22;;;-2.44;56.60
35694;BME280;21812;55.536;37.664;2023-02-28T08:09:58;99510.81;;;-2.17;55.80
35694;BME280;21812;55.536;37.664;2023-02-28T08:12:24;99502.28;;;-2.08;55.56
35694;BME280;21812;55.536;37.664;2023-02-28T08:14:49;99491.59;;;-2.05;55.43
35694;BME280;21812;55.536;37.664;2023-02-28T08:17:15;99478.63;;;-2.06;55.44
35694;BME280;21812;55.536;37.664;2023-02-28T08:19:41;99475.91;;;-2.05;55.85
35694;BME280;21812;55.536;37.664;2023-02-28T08:22:06;99490.59;;;-2.26;56.06
35694;BME280;21812;55.536;37.664;2023-02-28T08:24:32;99481.94;;;-2.16;56.51
35694;BME280;21812;55.536;37.664;2023-02-28T08:26:58;99483.06;;;-1.95;55.94
35694;BME280;21812;55.536;37.664;2023-02-28T08:29:24;99461.53;;;-1.99;56.04
35694;BME280;21812;55.536;37.664;2023-02-28T08:31:50;99474.19;;;-2.17;56.46
35694;BME280;21812;55.536;37.664;2023-02-28T08:34:16;99471.56;;;-2.17;56.12
35694;BME280;21812;55.536;37.664;2023-02-28T08:36:42;99453.06;;;-2.03;56.36
35694;BME280;21812;55.536;37.664;2023-02-28T08:39:10;99452.88;;;-1.77;56.14
35694;BME280;21812;55.536;37.664;2023-02-28T08:41:35;99467.75;;;-1.66;55.45
35694;BME280;21812;55.536;37.664;2023-02-28T08:44:02;99455.75;;;-1.69;55.75
35694;BME280;21812;55.536;37.664;2023-02-28T08:46:27;99438.84;;;-1.76;55.73
35694;BME280;21812;55.536;37.664;2023-02-28T08:48:55;99451.91;;;-1.76;56.07
35694;BME280;21812;55.536;37.664;2023-02-28T08:51:21;99425.03;;;-1.67;56.26
35694;BME280;21812;55.536;37.664;2023-02-28T08:54:09;99399.78;;;-1.57;56.00
35694;BME280;21812;55.536;37.664;2023-02-28T08:56:40;99410.25;;;-1.45;55.25
35694;BME280;21812;55.536;37.664;2023-02-28T08:59:08;99362.88;;;-1.53;55.34
35694;BME280;21812;55.536;37.664;2023-02-28T09:01:34;99391.63;;;-1.08;55.13
35694;BME280;21812;55.536;37.664;2023-02-28T09:04:01;99415.13;;;-0.86;54.69
35694;BME280;21812;55.536;37.664;2023-02-28T09:06:28;99445.09;;;-1.11;55.04
35694;BME280;21812;55.536;37.664;2023-02-28T09:08:57;99414.16;;;-1.40;55.25
35694;BME280;21812;55.536;37.664;2023-02-28T09:11:27;99480.75;;;-1.31;55.86
35694;BME280;21812;55.536;37.664;2023-02-28T09:13:53;99450.25;;;-1.43;56.30
35694;BME280;21812;55.536;37.664;2023-02-28T09:16:21;99443.00;;;-1.51;56.64
35694;BME280;21812;55.536;37.664;2023-02-28T09:18:47;99427.44;;;-1.64;58.03
35694;BME280;21812;55.536;37.664;2023-02-28T09:21:15;99422.53;;;-1.57;58.38
35694;BME280;21812;55.536;37.664;2023-02-28T09:23:42;99425.25;;;-1.47;58.26
35694;BME280;21812;55.536;37.664;2023-02-28T09:26:14;99369.06;;;-1.66;58.41
35694;BME280;21812;55.536;37.664;2023-02-28T09:28:40;99387.88;;;-1.49;58.61
35694;BME280;21812;55.536;37.664;2023-02-28T09:31:05;99384.03;;;-1.34;58.73
35694;BME280;21812;55.536;37.664;2023-02-28T09:33:31;99383.69;;;-1.29;58.33
35694;BME280;21812;55.536;37.664;2023-02-28T09:36:00;99387.84;;;-1.27;58.65
35694;BME280;21812;55.536;37.664;2023-02-28T09:38:26;99381.16;;;-1.20;58.47
35694;BME280;21812;55.536;37.664;2023-02-28T09:40:56;99374.03;;;-1.29;58.90
35694;BME280;21812;55.536;37.664;2023-02-28T09:43:29;99372.59;;;-1.22;59.16
35694;BME280;21812;55.536;37.664;2023-02-28T09:48:46;99361.75;;;-1.28;59.45
35694;BME280;21812;55.536;37.664;2023-02-28T09:54:17;99359.78;;;-1.59;60.64
35694;BME280;21812;55.536;37.664;2023-02-28T10:05:53;99333.72;;;-1.60;61.67
35694;BME280;21812;55.536;37.664;2023-02-28T10:08:25;99368.22;;;-1.44;61.75
35694;BME280;21812;55.536;37.664;2023-02-28T10:10:58;99375.13;;;-1.31;61.13
35694;BME280;21812;55.536;37.664;2023-02-28T10:13:36;99332.84;;;-1.38;60.44
35694;BME280;21812;55.536;37.664;2023-02-28T10:16:10;99320.84;;;-1.41;60.30
35694;BME280;21812;55.536;37.664;2023-02-28T10:18:47;99369.50;;;-1.27;60.71
35694;BME280;21812;55.536;37.664;2023-02-28T10:21:21;99354.50;;;-1.25;60.79
35694;BME280;21812;55.536;37.664;2023-02-28T10:23:48;99325.19;;;-1.30;60.93
35694;BME280;21812;55.536;37.664;2023-02-28T10:26:17;99333.53;;;-1.25;60.95
35694;BME280;21812;55.536;37.664;2023-02-28T10:28:43;99327.78;;;-1.19;60.42
35694;BME280;21812;55.536;37.664;2023-02-28T10:31:18;99316.59;;;-1.21;60.52
35694;BME280;21812;55.536;37.664;2023-02-28T10:33:44;99322.91;;;-1.12;60.29
35694;BME280;21812;55.536;37.664;2023-02-28T10:36:18;99320.63;;;-1.16;60.56
35694;BME280;21812;55.536;37.664;2023-02-28T10:38:46;99287.75;;;-1.42;60.63
35694;BME280;21812;55.536;37.664;2023-02-28T10:41:14;99323.09;;;-1.36;60.63
35694;BME280;21812;55.536;37.664;2023-02-28T10:43:41;99324.66;;;-1.45;61.46
35694;BME280;21812;55.536;37.664;2023-02-28T10:48:43;99293.00;;;-1.53;61.55
35694;BME280;21812;55.536;37.664;2023-02-28T10:51:12;99223.88;;;-1.94;61.69
35694;BME280;21812;55.536;37.664;2023-02-28T10:53:52;99280.88;;;-1.54;61.78
35694;BME280;21812;55.536;37.664;2023-02-28T10:56:20;99305.47;;;-1.45;61.56
35694;BME280;21812;55.536;37.664;2023-02-28T11:04:40;99261.44;;;-1.84;62.56
35694;BME280;21812;55.536;37.664;2023-02-28T11:07:10;99280.13;;;-1.77;62.67
35694;BME280;21812;55.536;37.664;2023-02-28T11:09:51;99275.09;;;-1.80;62.86
35694;BME280;21812;55.536;37.664;2023-02-28T11:12:30;99272.34;;;-1.67;62.33
35694;BME280;21812;55.536;37.664;2023-02-28T11:15:05;99238.00;;;-1.85;62.58
35694;BME280;21812;55.536;37.664;2023-02-28T11:17:32;99261.00;;;-1.57;62.31
35694;BME280;21812;55.536;37.664;2023-02-28T11:20:02;99269.84;;;-1.69;62.29
35694;BME280;21812;55.536;37.664;2023-02-28T11:22:32;99250.44;;;-1.66;62.86
35694;BME280;21812;55.536;37.664;2023-02-28T11:25:03;99220.50;;;-1.85;63.13
35694;BME280;21812;55.536;37.664;2023-02-28T11:29:59;99243.13;;;-1.51;62.89
35694;BME280;21812;55.536;37.664;2023-02-28T11:32:33;99235.22;;;-1.40;63.03
35694;BME280;21812;55.536;37.664;2023-02-28T11:37:38;99233.94;;;-1.46;62.92
35694;BME280;21812;55.536;37.664;2023-02-28T11:40:15;99250.06;;;-1.50;63.68
35694;BME280;21812;55.536;37.664;2023-02-28T11:56:44;99237.34;;;-1.34;64.36
35694;BME280;21812;55.536;37.664;2023-02-28T12:16:28;99217.19;;;-1.54;66.65
35694;BME280;21812;55.536;37.664;2023-02-28T12:19:17;99166.25;;;-1.83;66.88
35694;BME280;21812;55.536;37.664;2023-02-28T12:27:18;99206.44;;;-1.19;66.07
35694;BME280;21812;55.536;37.664;2023-02-28T12:29:50;99196.34;;;-1.24;66.05
35694;BME280;21812;55.536;37.664;2023-02-28T12:32:31;99193.34;;;-1.19;66.72
35694;BME280;21812;55.536;37.664;2023-02-28T12:35:19;99181.44;;;-1.23;66.57
35694;BME280;21812;55.536;37.664;2023-02-28T12:37:51;99180.22;;;-1.40;67.09
35694;BME280;21812;55.536;37.664;2023-02-28T12:40:22;99166.94;;;-1.48;67.41
35694;BME280;21812;55.536;37.664;2023-02-28T12:43:02;99192.06;;;-1.25;67.46
35694;BME280;21812;55.536;37.664;2023-02-28T12:45:51;99146.56;;;-1.45;67.48
35694;BME280;21812;55.536;37.664;2023-02-28T12:48:33;99166.63;;;-1.34;67.72
35694;BME280;21812;55.536;37.664;2023-02-28T12:51:04;99175.94;;;-1.41;68.23
35694;BME280;21812;55.536;37.664;2023-02-28T12:53:41;99145.03;;;-1.47;68.40
35694;BME280;21812;55.536;37.664;2023-02-28T12:56:30;99112.78;;;-1.48;68.05
35694;BME280;21812;55.536;37.664;2023-02-28T12:59:10;99130.19;;;-1.58;68.43
35694;BME280;21812;55.536;37.664;2023-02-28T13:01:59;99154.34;;;-1.33;68.64
35694;BME280;21812;55.536;37.664;2023-02-28T13:04:36;99164.13;;;-1.35;68.72
35694;BME280;21812;55.536;37.664;2023-02-28T13:10:09;99147.41;;;-1.44;69.61
35694;BME280;21812;55.536;37.664;2023-02-28T13:12:35;99130.91;;;-1.35;69.33
35694;BME280;21812;55.536;37.664;2023-02-28T13:15:25;99089.72;;;-1.54;69.37
35694;BME280;21812;55.536;37.664;2023-02-28T13:17:56;99126.38;;;-1.33;69.42
35694;BME280;21812;55.536;37.664;2023-02-28T13:20:33;99100.44;;;-1.36;69.88
35694;BME280;21812;55.536;37.664;2023-02-28T13:23:00;99115.00;;;-1.43;69.92
35694;BME280;21812;55.536;37.664;2023-02-28T13:27:59;99131.00;;;-1.46;70.34
35694;BME280;21812;55.536;37.664;2023-02-28T13:38:53;99102.19;;;-1.46;70.83
35694;BME280;21812;55.536;37.664;2023-02-28T13:44:27;99060.78;;;-1.73;70.77
35694;BME280;21812;55.536;37.664;2023-02-28T14:03:57;99064.75;;;-1.37;70.05
35694;BME280;21812;55.536;37.664;2023-02-28T14:06:35;99051.13;;;-1.31;70.41
35694;BME280;21812;55.536;37.664;2023-02-28T14:11:42;99045.25;;;-1.44;70.59
35694;BME280;21812;55.536;37.664;2023-02-28T14:14:09;98989.72;;;-1.69;70.20
35694;BME280;21812;55.536;37.664;2023-02-28T14:16:55;99055.81;;;-1.25;70.18
35694;BME280;21812;55.536;37.664;2023-02-28T14:19:30;99069.50;;;-1.21;70.14
35694;BME280;21812;55.536;37.664;2023-02-28T14:25:09;99051.00;;;-1.29;70.66
35694;BME280;21812;55.536;37.664;2023-02-28T14:28:07;99072.59;;;-1.37;71.03
35694;BME280;21812;55.536;37.664;2023-02-28T14:38:28;99038.47;;;-1.47;72.16
35694;BME280;21812;55.536;37.664;2023-02-28T14:40:57;99084.41;;;-1.43;72.23
35694;BME280;21812;55.536;37.664;2023-02-28T14:43:28;99043.34;;;-1.42;72.49
35694;BME280;21812;55.536;37.664;2023-02-28T14:45:56;99029.34;;;-1.52;73.29
35694;BME280;21812;55.536;37.664;2023-02-28T14:48:22;99042.03;;;-1.58;73.81
35694;BME280;21812;55.536;37.664;2023-02-28T14:50:53;99019.59;;;-1.50;74.40
35694;BME280;21812;55.536;37.664;2023-02-28T14:53:21;99030.25;;;-1.42;73.81
35694;BME280;21812;55.536;37.664;2023-02-28T14:55:48;99022.63;;;-1.45;74.45
35694;BME280;21812;55.536;37.664;2023-02-28T14:58:32;98990.56;;;-1.68;74.80
35694;BME280;21812;55.536;37.664;2023-02-28T15:01:00;99005.84;;;-1.43;74.92
35694;BME280;21812;55.536;37.664;2023-02-28T15:06:00;99006.09;;;-1.46;75.76
35694;BME280;21812;55.536;37.664;2023-02-28T15:08:28;99006.22;;;-1.47;76.15
35694;BME280;21812;55.536;37.664;2023-02-28T15:10:59;98973.75;;;-1.66;76.56
35694;BME280;21812;55.536;37.664;2023-02-28T15:13:47;98997.34;;;-1.35;76.35
35694;BME280;21812;55.536;37.664;2023-02-28T15:16:17;98972.16;;;-1.57;76.07
35694;BME280;21812;55.536;37.664;2023-02-28T15:21:23;98989.28;;;-1.43;76.06
35694;BME280;21812;55.536;37.664;2023-02-28T15:24:00;98991.66;;;-1.40;76.07
35694;BME280;21812;55.536;37.664;2023-02-28T15:26:40;99013.34;;;-1.28;76.22
35694;BME280;21812;55.536;37.664;2023-02-28T15:29:15;98959.78;;;-1.45;76.14
35694;BME280;21812;55.536;37.664;2023-02-28T15:32:06;99005.69;;;-1.10;75.66
35694;BME280;21812;55.536;37.664;2023-02-28T15:34:40;98973.09;;;-1.27;75.72
35694;BME280;21812;55.536;37.664;2023-02-28T15:40:17;98996.53;;;-1.26;76.03